sensor_id;sensor_type;location;lat;lon;timestamp;temperature;humidity
12413;DHT22;13877;18.896;-99.222;2023-04-03T00:01:02;34.70;10.40
12413;DHT22;13877;18.896;-99.222;2023-04-03T00:03:30;34.60;11.40
12413;DHT22;13877;18.896;-99.222;2023-04-03T00:05:57;34.40;11.10
12413;DHT22;13877;18.896;-99.222;2023-04-03T00:08:24;34.30;11.30
12413;DHT22;13877;18.896;-99.222;2023-04-03T00:10:51;33.90;11.90
12413;DHT22;13877;18.896;-99.222;2023-04-03T00:13:18;33.50;11.70
12413;DHT22;13877;18.896;-99.222;2023-04-03T00:15:45;33.20;12.10
12413;DHT22;13877;18.896;-99.222;2023-04-03T00:18:12;32.90;12.00
12413;DHT22;13877;18.896;-99.222;2023-04-03T00:20:39;32.70;12.60
12413;DHT22;13877;18.896;-99.222;2023-04-03T00:23:07;32.50;12.70
12413;DHT22;13877;18.896;-99.222;2023-04-03T00:25:36;32.20;13.00
12413;DHT22;13877;18.896;-99.222;2023-04-03T00:28:04;31.90;13.70
12413;DHT22;13877;18.896;-99.222;2023-04-03T00:30:32;31.50;13.70
12413;DHT22;13877;18.896;-99.222;2023-04-03T00:32:59;31.10;14.10
12413;DHT22;13877;18.896;-99.222;2023-04-03T00:35:27;30.80;14.70
12413;DHT22;13877;18.896;-99.222;2023-04-03T00:37:55;30.50;15.00
12413;DHT22;13877;18.896;-99.222;2023-04-03T00:40:25;30.20;15.00
12413;DHT22;13877;18.896;-99.222;2023-04-03T00:42:57;29.90;14.90
12413;DHT22;13877;18.896;-99.222;2023-04-03T00:45:34;29.80;16.00
12413;DHT22;13877;18.896;-99.222;2023-04-03T00:48:05;29.80;16.50
12413;DHT22;13877;18.896;-99.222;2023-04-03T00:50:39;29.70;16.20
12413;DHT22;13877;18.896;-99.222;2023-04-03T00:53:10;29.50;17.20
12413;DHT22;13877;18.896;-99.222;2023-04-03T00:55:38;29.00;17.60
12413;DHT22;13877;18.896;-99.222;2023-04-03T00:58:07;28.70;18.10
12413;DHT22;13877;18.896;-99.222;2023-04-03T01:00:37;28.50;18.00
12413;DHT22;13877;18.896;-99.222;2023-04-03T01:03:05;28.80;17.80
12413;DHT22;13877;18.896;-99.222;2023-04-03T01:05:33;28.70;17.20
12413;DHT22;13877;18.896;-99.222;2023-04-03T01:08:02;28.50;17.50
12413;DHT22;13877;18.896;-99.222;2023-04-03T01:10:28;28.40;17.70
12413;DHT22;13877;18.896;-99.222;2023-04-03T01:13:00;28.20;17.90
12413;DHT22;13877;18.896;-99.222;2023-04-03T01:15:28;28.20;18.00
12413;DHT22;13877;18.896;-99.222;2023-04-03T01:18:01;28.10;18.10
12413;DHT22;13877;18.896;-99.222;2023-04-03T01:25:46;27.70;18.00
12413;DHT22;13877;18.896;-99.222;2023-04-03T01:28:21;28.20;18.50
12413;DHT22;13877;18.896;-99.222;2023-04-03T01:33:46;28.50;18.00
12413;DHT22;13877;18.896;-99.222;2023-04-03T01:36:39;28.50;18.30
12413;DHT22;13877;18.896;-99.222;2023-04-03T01:39:06;28.40;18.30
12413;DHT22;13877;18.896;-99.222;2023-04-03T01:41:33;28.30;18.40
12413;DHT22;13877;18.896;-99.222;2023-04-03T01:44:09;28.20;18.50
12413;DHT22;13877;18.896;-99.222;2023-04-03T01:46:37;28.20;18.50
12413;DHT22;13877;18.896;-99.222;2023-04-03T01:49:05;28.10;18.70
12413;DHT22;13877;18.896;-99.222;2023-04-03T01:51:32;27.90;18.70
12413;DHT22;13877;18.896;-99.222;2023-04-03T01:54:00;27.90;18.80
12413;DHT22;13877;18.896;-99.222;2023-04-03T01:56:27;27.80;18.90
12413;DHT22;13877;18.896;-99.222;2023-04-03T01:58:54;27.70;18.90
12413;DHT22;13877;18.896;-99.222;2023-04-03T02:01:22;27.70;18.80
12413;DHT22;13877;18.896;-99.222;2023-04-03T02:03:49;27.60;18.70
12413;DHT22;13877;18.896;-99.222;2023-04-03T02:06:17;27.60;18.70
12413;DHT22;13877;18.896;-99.222;2023-04-03T02:08:43;27.60;18.70
12413;DHT22;13877;18.896;-99.222;2023-04-03T02:11:11;27.60;18.70
12413;DHT22;13877;18.896;-99.222;2023-04-03T02:13:37;27.50;18.70
12413;DHT22;13877;18.896;-99.222;2023-04-03T02:16:09;27.40;18.70
12413;DHT22;13877;18.896;-99.222;2023-04-03T02:18:37;27.40;18.80
12413;DHT22;13877;18.896;-99.222;2023-04-03T02:21:05;27.40;18.50
12413;DHT22;13877;18.896;-99.222;2023-04-03T02:23:32;27.40;18.60
12413;DHT22;13877;18.896;-99.222;2023-04-03T02:26:08;27.30;18.50
12413;DHT22;13877;18.896;-99.222;2023-04-03T02:28:36;27.30;18.50
12413;DHT22;13877;18.896;-99.222;2023-04-03T02:31:04;27.40;18.20
12413;DHT22;13877;18.896;-99.222;2023-04-03T02:33:33;27.40;18.20
12413;DHT22;13877;18.896;-99.222;2023-04-03T02:36:06;27.30;18.30
12413;DHT22;13877;18.896;-99.222;2023-04-03T02:38:34;27.20;18.20
12413;DHT22;13877;18.896;-99.222;2023-04-03T02:41:06;27.40;17.70
12413;DHT22;13877;18.896;-99.222;2023-04-03T02:43:34;27.50;17.80
12413;DHT22;13877;18.896;-99.222;2023-04-03T02:46:01;27.30;17.90
12413;DHT22;13877;18.896;-99.222;2023-04-03T02:48:28;27.20;18.00
12413;DHT22;13877;18.896;-99.222;2023-04-03T02:50:55;27.10;17.90
12413;DHT22;13877;18.896;-99.222;2023-04-03T02:53:24;27.20;18.20
12413;DHT22;13877;18.896;-99.222;2023-04-03T02:55:51;27.10;17.80
12413;DHT22;13877;18.896;-99.222;2023-04-03T02:58:19;27.20;17.70
12413;DHT22;13877;18.896;-99.222;2023-04-03T03:00:47;27.20;17.70
12413;DHT22;13877;18.896;-99.222;2023-04-03T03:03:17;27.10;17.80
12413;DHT22;13877;18.896;-99.222;2023-04-03T03:05:45;27.10;17.90
12413;DHT22;13877;18.896;-99.222;2023-04-03T03:08:14;27.20;17.60
12413;DHT22;13877;18.896;-99.222;2023-04-03T03:10:41;27.20;17.60
12413;DHT22;13877;18.896;-99.222;2023-04-03T03:13:08;27.10;17.70
12413;DHT22;13877;18.896;-99.222;2023-04-03T03:15:37;27.00;17.80
12413;DHT22;13877;18.896;-99.222;2023-04-03T03:18:04;27.00;17.70
12413;DHT22;13877;18.896;-99.222;2023-04-03T03:20:31;27.00;17.80
12413;DHT22;13877;18.896;-99.222;2023-04-03T03:22:58;27.00;17.70
12413;DHT22;13877;18.896;-99.222;2023-04-03T03:25:26;27.00;17.60
12413;DHT22;13877;18.896;-99.222;2023-04-03T03:27:52;26.90;17.60
12413;DHT22;13877;18.896;-99.222;2023-04-03T03:30:20;27.00;17.70
12413;DHT22;13877;18.896;-99.222;2023-04-03T03:32:47;26.90;17.60
12413;DHT22;13877;18.896;-99.222;2023-04-03T03:35:14;26.80;17.60
12413;DHT22;13877;18.896;-99.222;2023-04-03T03:37:41;26.80;17.60
12413;DHT22;13877;18.896;-99.222;2023-04-03T03:40:09;26.80;17.60
12413;DHT22;13877;18.896;-99.222;2023-04-03T03:42:37;26.80;17.70
12413;DHT22;13877;18.896;-99.222;2023-04-03T03:45:05;26.80;17.80
12413;DHT22;13877;18.896;-99.222;2023-04-03T03:47:32;26.80;17.90
12413;DHT22;13877;18.896;-99.222;2023-04-03T03:50:00;26.80;17.90
12413;DHT22;13877;18.896;-99.222;2023-04-03T03:52:27;26.90;17.70
12413;DHT22;13877;18.896;-99.222;2023-04-03T03:54:56;26.90;17.70
12413;DHT22;13877;18.896;-99.222;2023-04-03T03:57:23;26.90;17.70
12413;DHT22;13877;18.896;-99.222;2023-04-03T03:59:50;26.90;17.70
12413;DHT22;13877;18.896;-99.222;2023-04-03T04:02:19;26.80;17.70
12413;DHT22;13877;18.896;-99.222;2023-04-03T04:04:46;26.80;17.60
12413;DHT22;13877;18.896;-99.222;2023-04-03T04:07:13;26.90;17.60
12413;DHT22;13877;18.896;-99.222;2023-04-03T04:09:41;26.90;17.50
12413;DHT22;13877;18.896;-99.222;2023-04-03T04:12:09;26.90;17.70
12413;DHT22;13877;18.896;-99.222;2023-04-03T04:14:36;26.80;17.70
12413;DHT22;13877;18.896;-99.222;2023-04-03T04:17:05;26.70;17.80
12413;DHT22;13877;18.896;-99.222;2023-04-03T04:19:33;26.60;18.00
12413;DHT22;13877;18.896;-99.222;2023-04-03T04:22:00;26.60;18.40
12413;DHT22;13877;18.896;-99.222;2023-04-03T04:24:29;26.70;18.70
12413;DHT22;13877;18.896;-99.222;2023-04-03T04:26:59;26.70;19.10
12413;DHT22;13877;18.896;-99.222;2023-04-03T04:29:26;26.60;19.30
12413;DHT22;13877;18.896;-99.222;2023-04-03T04:31:53;26.60;19.60
12413;DHT22;13877;18.896;-99.222;2023-04-03T04:34:21;26.60;19.80
12413;DHT22;13877;18.896;-99.222;2023-04-03T04:36:48;26.60;20.20
12413;DHT22;13877;18.896;-99.222;2023-04-03T04:39:16;26.80;21.00
12413;DHT22;13877;18.896;-99.222;2023-04-03T04:41:43;26.70;21.00
12413;DHT22;13877;18.896;-99.222;2023-04-03T04:44:10;26.60;21.00
12413;DHT22;13877;18.896;-99.222;2023-04-03T04:46:37;26.60;21.40
12413;DHT22;13877;18.896;-99.222;2023-04-03T04:49:05;26.60;21.60
12413;DHT22;13877;18.896;-99.222;2023-04-03T04:51:32;26.40;22.10
12413;DHT22;13877;18.896;-99.222;2023-04-03T04:54:00;26.20;22.30
12413;DHT22;13877;18.896;-99.222;2023-04-03T04:56:27;26.00;21.70
12413;DHT22;13877;18.896;-99.222;2023-04-03T04:58:56;25.70;21.90
12413;DHT22;13877;18.896;-99.222;2023-04-03T05:01:24;25.40;22.20
12413;DHT22;13877;18.896;-99.222;2023-04-03T05:03:57;25.20;22.50
12413;DHT22;13877;18.896;-99.222;2023-04-03T05:06:25;25.20;23.20
12413;DHT22;13877;18.896;-99.222;2023-04-03T05:08:53;25.20;23.00
12413;DHT22;13877;18.896;-99.222;2023-04-03T05:11:22;25.10;23.10
12413;DHT22;13877;18.896;-99.222;2023-04-03T05:13:50;24.80;23.40
12413;DHT22;13877;18.896;-99.222;2023-04-03T05:16:18;24.90;24.10
12413;DHT22;13877;18.896;-99.222;2023-04-03T05:18:46;25.10;25.10
12413;DHT22;13877;18.896;-99.222;2023-04-03T05:21:18;25.80;25.10
12413;DHT22;13877;18.896;-99.222;2023-04-03T05:23:47;25.80;24.40
12413;DHT22;13877;18.896;-99.222;2023-04-03T05:26:14;25.70;24.90
12413;DHT22;13877;18.896;-99.222;2023-04-03T05:28:42;25.50;25.30
12413;DHT22;13877;18.896;-99.222;2023-04-03T05:31:11;25.40;25.30
12413;DHT22;13877;18.896;-99.222;2023-04-03T05:33:40;25.40;25.50
12413;DHT22;13877;18.896;-99.222;2023-04-03T05:36:10;25.20;26.00
12413;DHT22;13877;18.896;-99.222;2023-04-03T05:38:44;25.20;25.10
12413;DHT22;13877;18.896;-99.222;2023-04-03T05:41:11;24.90;25.00
12413;DHT22;13877;18.896;-99.222;2023-04-03T05:43:38;24.60;25.20
12413;DHT22;13877;18.896;-99.222;2023-04-03T05:46:11;24.70;24.60
12413;DHT22;13877;18.896;-99.222;2023-04-03T05:48:40;24.60;24.70
12413;DHT22;13877;18.896;-99.222;2023-04-03T05:51:23;24.50;25.10
12413;DHT22;13877;18.896;-99.222;2023-04-03T05:56:43;24.10;25.80
12413;DHT22;13877;18.896;-99.222;2023-04-03T05:59:11;24.00;25.60
12413;DHT22;13877;18.896;-99.222;2023-04-03T06:01:40;24.00;25.90
12413;DHT22;13877;18.896;-99.222;2023-04-03T06:04:07;24.10;25.60
12413;DHT22;13877;18.896;-99.222;2023-04-03T06:09:15;23.50;26.00
12413;DHT22;13877;18.896;-99.222;2023-04-03T06:11:42;23.10;26.60
12413;DHT22;13877;18.896;-99.222;2023-04-03T06:14:10;23.00;26.90
12413;DHT22;13877;18.896;-99.222;2023-04-03T06:16:37;22.90;27.50
12413;DHT22;13877;18.896;-99.222;2023-04-03T06:19:10;23.10;27.50
12413;DHT22;13877;18.896;-99.222;2023-04-03T06:21:41;23.30;27.50
12413;DHT22;13877;18.896;-99.222;2023-04-03T06:24:12;23.50;27.00
12413;DHT22;13877;18.896;-99.222;2023-04-03T06:26:40;23.50;27.10
12413;DHT22;13877;18.896;-99.222;2023-04-03T06:29:06;23.40;27.20
12413;DHT22;13877;18.896;-99.222;2023-04-03T06:31:34;23.30;27.30
12413;DHT22;13877;18.896;-99.222;2023-04-03T06:34:03;23.00;28.00
12413;DHT22;13877;18.896;-99.222;2023-04-03T06:36:30;23.10;27.60
12413;DHT22;13877;18.896;-99.222;2023-04-03T06:38:58;24.00;25.60
12413;DHT22;13877;18.896;-99.222;2023-04-03T06:41:25;24.10;25.50
12413;DHT22;13877;18.896;-99.222;2023-04-03T06:43:52;23.90;25.70
12413;DHT22;13877;18.896;-99.222;2023-04-03T06:46:22;23.70;26.30
12413;DHT22;13877;18.896;-99.222;2023-04-03T06:48:49;23.60;26.20
12413;DHT22;13877;18.896;-99.222;2023-04-03T06:53:49;23.60;26.30
12413;DHT22;13877;18.896;-99.222;2023-04-03T06:56:17;23.60;26.30
12413;DHT22;13877;18.896;-99.222;2023-04-03T06:58:45;23.60;26.50
12413;DHT22;13877;18.896;-99.222;2023-04-03T07:01:15;23.80;26.40
12413;DHT22;13877;18.896;-99.222;2023-04-03T07:03:42;23.60;26.60
12413;DHT22;13877;18.896;-99.222;2023-04-03T07:06:13;23.40;26.90
12413;DHT22;13877;18.896;-99.222;2023-04-03T07:08:41;23.20;27.30
12413;DHT22;13877;18.896;-99.222;2023-04-03T07:11:09;23.00;27.60
12413;DHT22;13877;18.896;-99.222;2023-04-03T07:13:36;22.80;28.10
12413;DHT22;13877;18.896;-99.222;2023-04-03T07:16:05;22.90;28.50
12413;DHT22;13877;18.896;-99.222;2023-04-03T07:18:33;22.80;28.70
12413;DHT22;13877;18.896;-99.222;2023-04-03T07:21:00;22.70;28.90
12413;DHT22;13877;18.896;-99.222;2023-04-03T07:23:27;22.80;29.40
12413;DHT22;13877;18.896;-99.222;2023-04-03T07:25:54;23.10;29.30
12413;DHT22;13877;18.896;-99.222;2023-04-03T07:28:22;23.10;29.10
12413;DHT22;13877;18.896;-99.222;2023-04-03T07:30:58;22.90;29.40
12413;DHT22;13877;18.896;-99.222;2023-04-03T07:33:26;22.80;29.80
12413;DHT22;13877;18.896;-99.222;2023-04-03T07:35:53;22.50;30.00
12413;DHT22;13877;18.896;-99.222;2023-04-03T07:38:20;22.20;30.90
12413;DHT22;13877;18.896;-99.222;2023-04-03T07:40:48;22.20;31.40
12413;DHT22;13877;18.896;-99.222;2023-04-03T07:43:17;22.30;31.60
12413;DHT22;13877;18.896;-99.222;2023-04-03T07:45:43;22.40;31.40
12413;DHT22;13877;18.896;-99.222;2023-04-03T07:48:12;22.60;32.00
12413;DHT22;13877;18.896;-99.222;2023-04-03T07:50:42;22.80;31.90
12413;DHT22;13877;18.896;-99.222;2023-04-03T07:53:10;22.80;32.20
12413;DHT22;13877;18.896;-99.222;2023-04-03T07:55:37;22.80;32.80
12413;DHT22;13877;18.896;-99.222;2023-04-03T07:58:10;22.80;33.30
12413;DHT22;13877;18.896;-99.222;2023-04-03T08:00:38;22.70;33.80
12413;DHT22;13877;18.896;-99.222;2023-04-03T08:03:05;22.70;34.30
12413;DHT22;13877;18.896;-99.222;2023-04-03T08:05:36;22.70;34.40
12413;DHT22;13877;18.896;-99.222;2023-04-03T08:08:04;22.70;34.90
12413;DHT22;13877;18.896;-99.222;2023-04-03T08:10:32;22.70;35.10
12413;DHT22;13877;18.896;-99.222;2023-04-03T08:12:59;22.60;35.50
12413;DHT22;13877;18.896;-99.222;2023-04-03T08:15:26;22.50;35.80
12413;DHT22;13877;18.896;-99.222;2023-04-03T08:17:54;22.10;36.20
12413;DHT22;13877;18.896;-99.222;2023-04-03T08:20:21;21.80;37.00
12413;DHT22;13877;18.896;-99.222;2023-04-03T08:22:48;21.60;37.80
12413;DHT22;13877;18.896;-99.222;2023-04-03T08:25:15;21.50;38.40
12413;DHT22;13877;18.896;-99.222;2023-04-03T08:27:44;21.50;38.90
12413;DHT22;13877;18.896;-99.222;2023-04-03T08:30:12;21.80;38.10
12413;DHT22;13877;18.896;-99.222;2023-04-03T08:32:39;21.60;38.00
12413;DHT22;13877;18.896;-99.222;2023-04-03T08:35:08;21.30;38.80
12413;DHT22;13877;18.896;-99.222;2023-04-03T08:37:36;21.00;39.80
12413;DHT22;13877;18.896;-99.222;2023-04-03T08:40:05;20.90;40.20
12413;DHT22;13877;18.896;-99.222;2023-04-03T08:45:16;21.00;40.30
12413;DHT22;13877;18.896;-99.222;2023-04-03T08:48:06;21.00;40.20
12413;DHT22;13877;18.896;-99.222;2023-04-03T08:50:44;20.80;40.70
12413;DHT22;13877;18.896;-99.222;2023-04-03T08:53:16;20.70;41.10
12413;DHT22;13877;18.896;-99.222;2023-04-03T08:55:47;20.60;41.60
12413;DHT22;13877;18.896;-99.222;2023-04-03T09:01:02;20.80;41.30
12413;DHT22;13877;18.896;-99.222;2023-04-03T09:03:38;20.80;41.70
12413;DHT22;13877;18.896;-99.222;2023-04-03T09:06:31;20.70;41.70
12413;DHT22;13877;18.896;-99.222;2023-04-03T09:09:15;20.80;41.90
12413;DHT22;13877;18.896;-99.222;2023-04-03T09:17:26;21.00;42.10
12413;DHT22;13877;18.896;-99.222;2023-04-03T09:23:28;21.10;42.20
12413;DHT22;13877;18.896;-99.222;2023-04-03T09:26:08;20.90;42.80
12413;DHT22;13877;18.896;-99.222;2023-04-03T09:28:39;21.00;42.50
12413;DHT22;13877;18.896;-99.222;2023-04-03T09:31:26;21.10;41.70
12413;DHT22;13877;18.896;-99.222;2023-04-03T09:33:57;21.00;42.10
12413;DHT22;13877;18.896;-99.222;2023-04-03T09:36:41;20.80;43.00
12413;DHT22;13877;18.896;-99.222;2023-04-03T09:39:17;20.60;43.30
12413;DHT22;13877;18.896;-99.222;2023-04-03T09:42:05;20.40;44.00
12413;DHT22;13877;18.896;-99.222;2023-04-03T09:44:35;20.30;44.40
12413;DHT22;13877;18.896;-99.222;2023-04-03T09:52:51;20.20;45.10
12413;DHT22;13877;18.896;-99.222;2023-04-03T09:55:23;20.20;45.30
12413;DHT22;13877;18.896;-99.222;2023-04-03T09:57:57;20.10;45.10
12413;DHT22;13877;18.896;-99.222;2023-04-03T10:00:44;20.20;44.90
12413;DHT22;13877;18.896;-99.222;2023-04-03T10:03:33;20.50;44.80
12413;DHT22;13877;18.896;-99.222;2023-04-03T10:06:03;20.60;44.60
12413;DHT22;13877;18.896;-99.222;2023-04-03T10:08:34;20.60;44.60
12413;DHT22;13877;18.896;-99.222;2023-04-03T10:11:16;20.40;44.40
12413;DHT22;13877;18.896;-99.222;2023-04-03T10:14:02;20.40;45.30
12413;DHT22;13877;18.896;-99.222;2023-04-03T10:16:43;20.70;44.70
12413;DHT22;13877;18.896;-99.222;2023-04-03T10:19:41;20.90;44.00
12413;DHT22;13877;18.896;-99.222;2023-04-03T10:22:31;21.00;44.10
12413;DHT22;13877;18.896;-99.222;2023-04-03T10:25:13;21.10;43.80
12413;DHT22;13877;18.896;-99.222;2023-04-03T10:28:02;21.00;43.60
12413;DHT22;13877;18.896;-99.222;2023-04-03T10:33:41;20.70;43.80
12413;DHT22;13877;18.896;-99.222;2023-04-03T10:36:23;20.70;43.80
12413;DHT22;13877;18.896;-99.222;2023-04-03T10:39:27;20.70;43.90
12413;DHT22;13877;18.896;-99.222;2023-04-03T10:50:29;20.50;44.70
12413;DHT22;13877;18.896;-99.222;2023-04-03T10:53:04;20.40;44.00
12413;DHT22;13877;18.896;-99.222;2023-04-03T10:55:46;20.40;44.30
12413;DHT22;13877;18.896;-99.222;2023-04-03T10:58:26;20.20;45.40
12413;DHT22;13877;18.896;-99.222;2023-04-03T11:03:58;19.90;45.90
12413;DHT22;13877;18.896;-99.222;2023-04-03T11:06:31;19.80;46.30
12413;DHT22;13877;18.896;-99.222;2023-04-03T11:09:33;19.80;46.20
12413;DHT22;13877;18.896;-99.222;2023-04-03T11:12:15;19.80;46.50
12413;DHT22;13877;18.896;-99.222;2023-04-03T11:14:43;19.60;46.90
12413;DHT22;13877;18.896;-99.222;2023-04-03T11:22:25;19.80;45.90
12413;DHT22;13877;18.896;-99.222;2023-04-03T11:28:00;19.60;46.00
12413;DHT22;13877;18.896;-99.222;2023-04-03T11:34:19;19.70;45.10
12413;DHT22;13877;18.896;-99.222;2023-04-03T11:36:33;19.70;44.40
12413;DHT22;13877;18.896;-99.222;2023-04-03T11:39:38;19.80;41.90
12413;DHT22;13877;18.896;-99.222;2023-04-03T11:47:55;19.80;39.60
12413;DHT22;13877;18.896;-99.222;2023-04-03T11:58:03;19.60;39.30
12413;DHT22;13877;18.896;-99.222;2023-04-03T12:00:52;19.60;39.40
12413;DHT22;13877;18.896;-99.222;2023-04-03T12:16:30;19.30;38.90
12413;DHT22;13877;18.896;-99.222;2023-04-03T12:19:01;19.30;39.10
12413;DHT22;13877;18.896;-99.222;2023-04-03T12:26:48;19.20;38.80
12413;DHT22;13877;18.896;-99.222;2023-04-03T12:29:25;19.20;38.90
12413;DHT22;13877;18.896;-99.222;2023-04-03T12:45:28;19.50;37.50
12413;DHT22;13877;18.896;-99.222;2023-04-03T12:47:56;19.60;37.20
12413;DHT22;13877;18.896;-99.222;2023-04-03T12:50:31;19.60;37.00
12413;DHT22;13877;18.896;-99.222;2023-04-03T12:55:29;19.70;37.50
12413;DHT22;13877;18.896;-99.222;2023-04-03T12:57:56;19.80;37.60
12413;DHT22;13877;18.896;-99.222;2023-04-03T13:00:34;19.70;37.60
12413;DHT22;13877;18.896;-99.222;2023-04-03T13:03:05;19.80;37.80
12413;DHT22;13877;18.896;-99.222;2023-04-03T13:05:33;19.80;37.70
12413;DHT22;13877;18.896;-99.222;2023-04-03T13:08:04;19.90;38.20
12413;DHT22;13877;18.896;-99.222;2023-04-03T13:10:35;19.90;37.90
12413;DHT22;13877;18.896;-99.222;2023-04-03T13:13:09;20.00;37.60
12413;DHT22;13877;18.896;-99.222;2023-04-03T13:15:43;20.20;37.00
12413;DHT22;13877;18.896;-99.222;2023-04-03T13:18:27;20.40;36.60
12413;DHT22;13877;18.896;-99.222;2023-04-03T13:21:03;20.70;35.90
12413;DHT22;13877;18.896;-99.222;2023-04-03T13:23:33;20.90;35.30
12413;DHT22;13877;18.896;-99.222;2023-04-03T13:26:01;21.10;35.10
12413;DHT22;13877;18.896;-99.222;2023-04-03T13:28:30;21.40;35.20
12413;DHT22;13877;18.896;-99.222;2023-04-03T13:36:45;22.00;34.70
12413;DHT22;13877;18.896;-99.222;2023-04-03T13:41:45;22.50;34.40
12413;DHT22;13877;18.896;-99.222;2023-04-03T13:46:55;23.00;34.70
12413;DHT22;13877;18.896;-99.222;2023-04-03T13:49:35;23.30;35.10
12413;DHT22;13877;18.896;-99.222;2023-04-03T13:55:03;23.80;35.20
12413;DHT22;13877;18.896;-99.222;2023-04-03T13:58:02;24.10;35.00
12413;DHT22;13877;18.896;-99.222;2023-04-03T14:03:43;24.20;35.30
12413;DHT22;13877;18.896;-99.222;2023-04-03T14:06:15;24.40;36.50
12413;DHT22;13877;18.896;-99.222;2023-04-03T14:08:44;24.80;36.00
12413;DHT22;13877;18.896;-99.222;2023-04-03T14:11:18;24.50;36.60
12413;DHT22;13877;18.896;-99.222;2023-04-03T14:13:47;24.40;36.30
12413;DHT22;13877;18.896;-99.222;2023-04-03T14:16:23;24.50;35.50
12413;DHT22;13877;18.896;-99.222;2023-04-03T14:18:52;24.50;35.40
12413;DHT22;13877;18.896;-99.222;2023-04-03T14:21:20;24.60;34.00
12413;DHT22;13877;18.896;-99.222;2023-04-03T14:23:48;24.40;34.10
12413;DHT22;13877;18.896;-99.222;2023-04-03T14:26:21;24.30;34.90
12413;DHT22;13877;18.896;-99.222;2023-04-03T14:28:51;24.50;34.60
12413;DHT22;13877;18.896;-99.222;2023-04-03T14:31:19;24.70;34.30
12413;DHT22;13877;18.896;-99.222;2023-04-03T14:33:47;24.90;34.10
12413;DHT22;13877;18.896;-99.222;2023-04-03T14:36:22;24.90;34.10
12413;DHT22;13877;18.896;-99.222;2023-04-03T14:38:52;25.00;34.40
12413;DHT22;13877;18.896;-99.222;2023-04-03T14:41:21;25.20;33.90
12413;DHT22;13877;18.896;-99.222;2023-04-03T14:43:49;25.50;33.40
12413;DHT22;13877;18.896;-99.222;2023-04-03T14:46:37;25.00;33.40
12413;DHT22;13877;18.896;-99.222;2023-04-03T14:49:13;25.70;33.40
12413;DHT22;13877;18.896;-99.222;2023-04-03T14:51:41;25.80;33.00
12413;DHT22;13877;18.896;-99.222;2023-04-03T14:54:19;25.80;32.60
12413;DHT22;13877;18.896;-99.222;2023-04-03T14:56:50;26.00;33.00
12413;DHT22;13877;18.896;-99.222;2023-04-03T14:59:16;26.20;32.70
12413;DHT22;13877;18.896;-99.222;2023-04-03T15:01:46;26.90;31.90
12413;DHT22;13877;18.896;-99.222;2023-04-03T15:04:15;27.60;31.20
12413;DHT22;13877;18.896;-99.222;2023-04-03T15:06:44;27.60;30.10
12413;DHT22;13877;18.896;-99.222;2023-04-03T15:09:24;27.30;30.70
12413;DHT22;13877;18.896;-99.222;2023-04-03T15:11:53;27.30;30.50
12413;DHT22;13877;18.896;-99.222;2023-04-03T15:14:21;27.50;31.00
12413;DHT22;13877;18.896;-99.222;2023-04-03T15:16:49;27.30;30.50
12413;DHT22;13877;18.896;-99.222;2023-04-03T15:19:15;26.70;31.30
12413;DHT22;13877;18.896;-99.222;2023-04-03T15:21:43;26.80;30.30
12413;DHT22;13877;18.896;-99.222;2023-04-03T15:24:10;27.10;30.70
12413;DHT22;13877;18.896;-99.222;2023-04-03T15:26:38;27.00;31.20
12413;DHT22;13877;18.896;-99.222;2023-04-03T15:29:05;27.20;30.20
12413;DHT22;13877;18.896;-99.222;2023-04-03T15:31:33;27.20;30.00
12413;DHT22;13877;18.896;-99.222;2023-04-03T15:33:59;28.00;29.70
12413;DHT22;13877;18.896;-99.222;2023-04-03T15:36:27;28.10;29.60
12413;DHT22;13877;18.896;-99.222;2023-04-03T15:38:54;28.10;29.40
12413;DHT22;13877;18.896;-99.222;2023-04-03T15:41:21;28.00;29.30
12413;DHT22;13877;18.896;-99.222;2023-04-03T15:43:48;28.00;29.70
12413;DHT22;13877;18.896;-99.222;2023-04-03T15:46:15;28.00;29.60
12413;DHT22;13877;18.896;-99.222;2023-04-03T15:48:42;28.60;29.20
12413;DHT22;13877;18.896;-99.222;2023-04-03T15:51:11;27.90;29.60
12413;DHT22;13877;18.896;-99.222;2023-04-03T15:53:38;28.50;28.90
12413;DHT22;13877;18.896;-99.222;2023-04-03T15:56:05;28.70;28.50
12413;DHT22;13877;18.896;-99.222;2023-04-03T15:58:36;29.10;28.70
12413;DHT22;13877;18.896;-99.222;2023-04-03T16:01:03;29.00;28.60
12413;DHT22;13877;18.896;-99.222;2023-04-03T16:03:30;28.40;28.70
12413;DHT22;13877;18.896;-99.222;2023-04-03T16:05:58;28.50;28.80
12413;DHT22;13877;18.896;-99.222;2023-04-03T16:08:24;27.80;29.40
12413;DHT22;13877;18.896;-99.222;2023-04-03T16:10:52;27.70;29.60
12413;DHT22;13877;18.896;-99.222;2023-04-03T16:13:18;28.70;29.00
12413;DHT22;13877;18.896;-99.222;2023-04-03T16:15:46;28.80;29.00
12413;DHT22;13877;18.896;-99.222;2023-04-03T16:18:12;29.30;28.50
12413;DHT22;13877;18.896;-99.222;2023-04-03T16:20:40;29.60;28.30
12413;DHT22;13877;18.896;-99.222;2023-04-03T16:23:07;29.50;28.20
12413;DHT22;13877;18.896;-99.222;2023-04-03T16:25:34;29.80;27.40
12413;DHT22;13877;18.896;-99.222;2023-04-03T16:28:01;29.90;27.40
12413;DHT22;13877;18.896;-99.222;2023-04-03T16:30:28;29.70;27.40
12413;DHT22;13877;18.896;-99.222;2023-04-03T16:32:57;29.60;27.80
12413;DHT22;13877;18.896;-99.222;2023-04-03T16:35:24;29.60;28.00
12413;DHT22;13877;18.896;-99.222;2023-04-03T16:37:51;30.20;26.90
12413;DHT22;13877;18.896;-99.222;2023-04-03T16:40:18;30.20;27.20
12413;DHT22;13877;18.896;-99.222;2023-04-03T16:42:45;30.20;26.60
12413;DHT22;13877;18.896;-99.222;2023-04-03T16:45:12;30.40;26.90
12413;DHT22;13877;18.896;-99.222;2023-04-03T16:47:40;31.00;26.40
12413;DHT22;13877;18.896;-99.222;2023-04-03T16:50:09;30.80;26.40
12413;DHT22;13877;18.896;-99.222;2023-04-03T16:52:36;30.40;26.60
12413;DHT22;13877;18.896;-99.222;2023-04-03T16:55:03;29.80;27.50
12413;DHT22;13877;18.896;-99.222;2023-04-03T16:57:30;30.00;27.40
12413;DHT22;13877;18.896;-99.222;2023-04-03T16:59:57;30.50;27.20
12413;DHT22;13877;18.896;-99.222;2023-04-03T17:02:24;30.60;26.30
12413;DHT22;13877;18.896;-99.222;2023-04-03T17:04:52;30.00;27.60
12413;DHT22;13877;18.896;-99.222;2023-04-03T17:07:20;30.10;26.90
12413;DHT22;13877;18.896;-99.222;2023-04-03T17:09:48;30.70;26.40
12413;DHT22;13877;18.896;-99.222;2023-04-03T17:12:16;30.20;27.80
12413;DHT22;13877;18.896;-99.222;2023-04-03T17:14:43;30.70;27.00
12413;DHT22;13877;18.896;-99.222;2023-04-03T17:17:11;31.20;26.00
12413;DHT22;13877;18.896;-99.222;2023-04-03T17:19:38;31.10;26.50
12413;DHT22;13877;18.896;-99.222;2023-04-03T17:22:07;31.60;25.60
12413;DHT22;13877;18.896;-99.222;2023-04-03T17:24:35;31.40;25.60
12413;DHT22;13877;18.896;-99.222;2023-04-03T17:27:03;31.30;25.40
12413;DHT22;13877;18.896;-99.222;2023-04-03T17:29:30;31.50;25.50